Terminal Aerodrome Forecast
Issued by NWS Jacksonville, FL

Home | Current Version | Previous Version | Text Only | Print | Product List | Glossary On
Versions: 1 2 3 4 5 6 7 8 9 10 11 12 13 14 15 16 17 18 19 20 21 22 23 24 25 26 27 28 29 30 31 32 33 34 35
617
FTUS42 KJAX 231924 AAB
TAFSSI
TAF AMD
KSSI 231924Z 2319/2418 26016G30KT P6SM VCSH SCT015 BKN020 OVC050
      TEMPO 2319/2323 -SHRA BKN015
     FM240600 28017G30KT P6SM SCT030
     FM241200 29012G18KT P6SM SKC=

USA.gov is the U.S. government's official web portal to all federal, state and local government web resources and services.